Time;durP1;ratioP1;P1;durP2;ratioP2;P2;SDS_P1;SDS_P2;PMS_P1;PMS_P2;Temp;Humidity;BMP_temperature;BMP_pressure;BME280_temperature;BME280_humidity;BME280_pressure;Samples;Min_cycle;Max_cycle;Signal;HPM_P1;HPM_P2
2022/04/20 00:00:15;;;;;;;23.77;19.02;;;;;;;3.75;100.00;99591.84;5073483;28;20365;-81
2022/04/20 00:02:41;;;;;;;22.63;18.17;;;;;;;3.64;100.00;99580.91;5055937;28;20581;-81
2022/04/20 00:05:06;;;;;;;26.15;18.92;;;;;;;3.63;100.00;99584.38;5055722;28;20053;-81
2022/04/20 00:07:33;;;;;;;25.75;18.15;;;;;;;3.60;100.00;99589.56;5073825;28;20024;-81
2022/04/20 00:09:59;;;;;;;24.08;18.10;;;;;;;3.52;100.00;99584.56;5055449;28;20109;-81
2022/04/20 00:12:25;;;;;;;21.02;17.35;;;;;;;3.44;100.00;99581.28;5073497;28;20036;-81
2022/04/20 00:14:50;;;;;;;21.15;17.00;;;;;;;3.45;100.00;99591.53;5073547;28;20025;-81
2022/04/20 00:17:16;;;;;;;20.88;17.30;;;;;;;3.32;100.00;99574.63;5055155;28;20029;-81
2022/04/20 00:19:41;;;;;;;25.58;17.67;;;;;;;3.36;100.00;99588.28;5073596;28;20078;-81
2022/04/20 00:22:07;;;;;;;24.38;18.30;;;;;;;3.23;100.00;99578.22;5073252;28;20438;-81
2022/04/20 00:24:32;;;;;;;23.92;17.85;;;;;;;3.23;100.00;99579.94;5073499;28;20028;-81
2022/04/20 00:26:57;;;;;;;21.20;16.73;;;;;;;3.12;100.00;99567.28;5073120;28;20070;-81
2022/04/20 00:29:23;;;;;;;23.80;17.63;;;;;;;3.16;100.00;99586.06;5073250;28;20434;-81
2022/04/20 00:31:48;;;;;;;21.23;16.38;;;;;;;3.13;100.00;99589.56;5073126;28;20115;-81
2022/04/20 00:34:14;;;;;;;25.25;16.23;;;;;;;3.06;100.00;99577.66;5054988;28;20035;-81
2022/04/20 00:36:39;;;;;;;26.65;17.02;;;;;;;3.02;100.00;99570.03;5073124;28;20024;-81
2022/04/20 00:39:04;;;;;;;24.52;16.60;;;;;;;2.99;100.00;99566.66;5072897;28;20119;-81
2022/04/20 00:41:30;;;;;;;25.58;17.10;;;;;;;2.93;100.00;99564.16;5050318;28;20664;-81
2022/04/20 00:43:55;;;;;;;26.63;18.70;;;;;;;2.95;100.00;99569.28;5050478;28;20044;-81
2022/04/20 00:46:24;;;;;;;28.48;18.67;;;;;;;2.91;100.00;99573.66;5033619;28;20041;-81
2022/04/20 00:48:50;;;;;;;25.77;18.67;;;;;;;2.75;100.00;99554.19;5033772;28;20033;-81
2022/04/20 00:51:16;;;;;;;24.88;18.15;;;;;;;2.71;100.00;99549.97;5050579;28;20068;-81
2022/04/20 00:53:41;;;;;;;28.55;19.42;;;;;;;2.70;100.00;99556.84;5050480;28;20067;-81
2022/04/20 00:56:06;;;;;;;25.10;17.33;;;;;;;2.74;100.00;99575.66;5033490;28;20593;-81
2022/04/20 00:58:34;;;;;;;23.65;17.10;;;;;;;2.62;100.00;99557.84;5050429;28;20033;-81
2022/04/20 01:01:00;;;;;;;23.80;17.38;;;;;;;2.66;100.00;99562.91;5050248;28;20080;-81
2022/04/20 01:03:26;;;;;;;25.75;17.30;;;;;;;2.66;100.00;99565.47;5010320;28;20119;-81
2022/04/20 01:05:51;;;;;;;26.98;18.13;;;;;;;2.70;100.00;99567.13;4994066;28;20718;-81
2022/04/20 01:08:17;;;;;;;27.73;17.58;;;;;;;2.75;100.00;99570.47;5010239;28;20379;-81
2022/04/20 01:10:42;;;;;;;25.45;17.23;;;;;;;2.73;100.00;99553.34;5010357;28;20046;-81
2022/04/20 01:13:08;;;;;;;23.13;16.80;;;;;;;2.85;100.00;99566.00;5009831;28;20536;-81
2022/04/20 01:15:34;;;;;;;24.20;17.27;;;;;;;2.92;100.00;99565.03;5010386;28;20059;-81
2022/04/20 01:18:09;;;;;;;24.80;17.75;;;;;;;2.92;100.00;99549.63;5010147;28;20033;-81
2022/04/20 01:20:34;;;;;;;24.63;16.85;;;;;;;3.01;100.00;99553.75;5010267;28;20045;-81
2022/04/20 01:22:59;;;;;;;22.50;16.08;;;;;;;3.08;100.00;99557.91;4993368;28;20494;-81
2022/04/20 01:25:25;;;;;;;24.70;16.13;;;;;;;3.13;100.00;99561.25;4990406;28;20042;-81
2022/04/20 01:27:51;;;;;;;21.13;15.50;;;;;;;3.12;100.00;99556.13;4990437;28;20442;-81
2022/04/20 01:30:16;;;;;;;23.73;16.00;;;;;;;3.23;100.00;99554.22;4990325;28;20042;-81
2022/04/20 01:32:41;;;;;;;20.58;15.48;;;;;;;3.25;100.00;99553.31;4974191;28;20031;-81
2022/04/20 01:35:08;;;;;;;21.75;16.25;;;;;;;3.33;100.00;99560.03;5021069;28;20046;-81
2022/04/20 01:37:34;;;;;;;22.40;15.90;;;;;;;3.33;100.00;99550.59;5029698;28;20535;-81
2022/04/20 01:39:59;;;;;;;22.88;15.98;;;;;;;3.40;100.00;99546.16;5013324;28;20033;-81
2022/04/20 01:42:25;;;;;;;16.50;13.90;;;;;;;3.47;100.00;99548.59;5012894;28;20025;-81
2022/04/20 01:44:50;;;;;;;15.40;12.98;;;;;;;3.54;99.19;99551.03;5013198;28;20091;-81
2022/04/20 01:47:16;;;;;;;16.27;12.35;;;;;;;3.54;97.50;99539.03;5012309;28;20061;-81
2022/04/20 01:49:41;;;;;;;16.90;11.77;;;;;;;3.64;95.24;99550.84;5013046;28;20034;-81
2022/04/20 01:52:07;;;;;;;15.10;11.73;;;;;;;3.78;93.75;99557.44;5012720;28;20141;-81
2022/04/20 01:54:33;;;;;;;16.38;11.90;;;;;;;3.79;92.20;99535.94;5029568;28;20079;-81
2022/04/20 01:56:58;;;;;;;16.10;11.85;;;;;;;3.89;91.69;99543.47;5029453;28;20053;-81
2022/04/20 01:59:23;;;;;;;16.35;13.05;;;;;;;3.96;91.06;99547.63;5029323;28;20061;-81
2022/04/20 02:04:34;;;;;;;15.48;11.40;;;;;;;3.98;89.68;99538.09;5071937;28;20075;-81
2022/04/20 02:06:59;;;;;;;17.08;12.43;;;;;;;4.06;89.42;99540.53;5071959;28;20078;-81
2022/04/20 02:09:25;;;;;;;19.30;13.25;;;;;;;4.03;88.60;99522.53;5071615;28;20040;-81
2022/04/20 02:11:50;;;;;;;14.43;11.65;;;;;;;4.12;88.38;99535.22;5071647;28;20029;-81
2022/04/20 02:14:16;;;;;;;15.50;12.43;;;;;;;4.12;87.98;99531.78;5071647;28;20115;-81
2022/04/20 02:16:41;;;;;;;17.02;12.38;;;;;;;4.12;87.47;99530.06;5053849;28;20529;-81
2022/04/20 02:19:07;;;;;;;13.27;11.32;;;;;;;4.20;86.87;99538.47;5071511;28;20431;-81
2022/04/20 02:21:32;;;;;;;15.35;11.60;;;;;;;4.23;86.57;99537.56;5071962;28;20024;-81
2022/04/20 02:23:57;;;;;;;16.20;11.73;;;;;;;4.23;86.93;99542.72;5071550;28;20040;-81
2022/04/20 02:26:23;;;;;;;16.77;11.48;;;;;;;4.15;85.86;99524.84;5071340;28;20037;-81
2022/04/20 02:28:48;;;;;;;13.40;10.73;;;;;;;4.30;85.09;99538.25;5053796;28;20363;-81
2022/04/20 02:31:14;;;;;;;16.92;11.88;;;;;;;4.27;84.66;99535.78;5071500;28;20387;-81
2022/04/20 02:33:40;;;;;;;15.88;11.65;;;;;;;4.21;84.45;99529.88;5053657;28;20028;-81
2022/04/20 02:36:06;;;;;;;15.68;12.57;;;;;;;4.40;83.48;99548.34;5071359;28;20024;-81
2022/04/20 02:38:31;;;;;;;16.05;12.40;;;;;;;4.42;83.64;99546.56;5071860;28;20111;-81
2022/04/20 02:40:57;;;;;;;16.83;11.77;;;;;;;4.39;83.47;99535.50;5071462;28;20028;-82
2022/04/20 02:43:22;;;;;;;15.45;12.48;;;;;;;4.43;82.51;99534.53;5071195;28;20492;-82
2022/04/20 02:45:48;;;;;;;16.05;11.82;;;;;;;4.42;82.45;99520.78;5053537;28;20035;-81
2022/04/20 02:48:14;;;;;;;17.08;12.45;;;;;;;4.52;82.47;99541.22;5071262;28;20107;-81
2022/04/20 02:50:39;;;;;;;16.67;11.77;;;;;;;4.50;82.10;99533.50;5071412;28;20074;-81
2022/04/20 02:53:05;;;;;;;15.52;12.25;;;;;;;4.50;81.49;99533.50;5053033;28;20029;-81
2022/04/20 02:55:31;;;;;;;14.05;11.48;;;;;;;4.49;81.64;99526.66;5071150;28;20376;-81
2022/04/20 02:57:56;;;;;;;15.68;12.18;;;;;;;4.47;81.97;99520.69;5070111;28;20488;-81
2022/04/20 03:00:22;;;;;;;16.55;12.35;;;;;;;4.55;81.50;99523.06;5073011;28;20032;-81
2022/04/20 03:02:48;;;;;;;20.77;13.23;;;;;;;4.47;81.57;99508.66;5074996;28;20434;-81
2022/04/20 03:05:13;;;;;;;15.85;11.88;;;;;;;4.60;81.19;99529.00;5074646;28;20111;-81
2022/04/20 03:07:39;;;;;;;14.80;11.35;;;;;;;4.52;81.38;99510.25;5074826;28;20151;-82
2022/04/20 03:10:04;;;;;;;16.85;11.88;;;;;;;4.59;81.51;99525.53;5056636;28;20647;-81
2022/04/20 03:12:30;;;;;;;15.85;12.55;;;;;;;4.56;81.07;99512.72;5074558;28;20074;-81
2022/04/20 03:14:55;;;;;;;19.20;12.27;;;;;;;4.59;80.70;99515.22;5075035;28;20031;-81
2022/04/20 03:17:24;;;;;;;16.27;11.73;;;;;;;4.64;81.05;99521.13;5074437;28;20029;-81
2022/04/20 03:19:51;;;;;;;17.48;13.13;;;;;;;4.66;81.37;99516.78;5056751;28;20039;-81
2022/04/20 03:22:17;;;;;;;21.23;12.98;;;;;;;4.66;81.52;99519.34;5073060;28;20426;-81
2022/04/20 03:24:43;;;;;;;17.55;12.30;;;;;;;4.62;81.27;99514.31;5074438;28;20162;-81
2022/04/20 03:27:08;;;;;;;15.23;12.15;;;;;;;4.67;80.87;99517.59;5056209;28;20111;-81
2022/04/20 03:29:34;;;;;;;18.00;12.48;;;;;;;4.71;80.54;99524.38;5056579;28;20033;-81
2022/04/20 03:32:07;;;;;;;16.42;12.45;;;;;;;4.67;79.63;99515.88;5056538;28;20027;-81
2022/04/20 03:34:33;;;;;;;15.98;11.85;;;;;;;4.66;79.78;99521.94;5056332;28;20398;-81
2022/04/20 03:36:58;;;;;;;15.48;11.55;;;;;;;4.75;79.46;99526.00;5074223;28;20056;-81
2022/04/20 03:39:24;;;;;;;14.63;12.15;;;;;;;4.73;79.36;99531.22;5056153;28;20518;-81
2022/04/20 03:41:49;;;;;;;17.98;11.75;;;;;;;4.73;78.81;99523.47;5074350;28;20060;-81
2022/04/20 03:44:14;;;;;;;14.52;11.25;;;;;;;4.73;79.38;99517.47;5073953;28;20483;-81
2022/04/20 03:46:40;;;;;;;15.65;12.05;;;;;;;4.75;79.53;99518.28;5074198;28;20100;-81
2022/04/20 03:49:05;;;;;;;15.15;11.60;;;;;;;4.78;79.67;99518.19;5056070;28;20028;-81
2022/04/20 03:51:32;;;;;;;17.58;11.35;;;;;;;4.71;79.83;99504.59;5055784;28;20020;-82
2022/04/20 03:53:58;;;;;;;14.75;11.10;;;;;;;4.81;79.93;99518.13;5074145;28;20021;-81
2022/04/20 03:56:23;;;;;;;14.85;11.35;;;;;;;4.74;80.12;99496.78;5055897;28;20468;-81
2022/04/20 03:58:49;;;;;;;16.20;11.82;;;;;;;4.76;80.98;99499.31;5074275;28;20025;-81
2022/04/20 04:01:14;;;;;;;16.13;11.80;;;;;;;4.77;81.46;99497.59;5073747;28;20062;-81
2022/04/20 04:03:40;;;;;;;20.20;12.80;;;;;;;4.79;81.39;99503.56;5055734;28;20055;-81
2022/04/20 04:06:06;;;;;;;18.65;12.90;;;;;;;4.89;81.34;99517.94;5073752;28;20029;-81
2022/04/20 04:08:31;;;;;;;21.08;12.52;;;;;;;4.87;82.44;99514.53;5055518;28;20031;-81
2022/04/20 04:10:57;;;;;;;18.30;14.63;;;;;;;4.76;82.80;99501.91;5051767;28;20045;-81
2022/04/20 04:13:22;;;;;;;22.88;14.50;;;;;;;4.80;83.50;99507.84;5053563;28;20063;-81
2022/04/20 04:15:49;;;;;;;19.45;14.75;;;;;;;4.70;83.83;99508.06;5053984;28;20385;-82
2022/04/20 04:18:14;;;;;;;17.70;14.70;;;;;;;4.74;84.75;99520.00;5053416;28;20460;-81
2022/04/20 04:20:40;;;;;;;21.60;15.73;;;;;;;4.67;85.06;99502.13;5052100;28;20035;-81
2022/04/20 04:23:06;;;;;;;21.73;15.55;;;;;;;4.67;85.84;99509.88;5052223;28;20025;-81
2022/04/20 04:25:31;;;;;;;20.77;14.85;;;;;;;4.65;86.82;99511.66;5053371;28;20075;-81
2022/04/20 04:27:57;;;;;;;18.20;13.63;;;;;;;4.66;86.80;99519.34;5052356;28;20021;-81
2022/04/20 04:30:22;;;;;;;18.67;13.98;;;;;;;4.64;86.87;99517.72;5053263;28;20071;-81
2022/04/20 04:32:48;;;;;;;16.25;14.00;;;;;;;4.60;87.07;99524.66;5053384;28;20036;-81
2022/04/20 04:35:13;;;;;;;18.77;14.13;;;;;;;4.65;86.68;99524.56;5052950;28;20033;-81
2022/04/20 04:37:39;;;;;;;17.73;14.20;;;;;;;4.55;86.70;99515.31;5051760;28;20017;-81
2022/04/20 04:40:07;;;;;;;18.83;15.38;;;;;;;4.66;86.49;99533.97;5051962;28;20060;-81
2022/04/20 04:42:32;;;;;;;18.63;14.57;;;;;;;4.63;86.88;99527.16;5052891;28;20025;-81
2022/04/20 04:50:26;;;;;;;19.17;14.25;;;;;;;4.64;86.98;99535.75;5052708;28;20104;-81
2022/04/20 04:52:51;;;;;;;18.77;14.13;;;;;;;4.64;87.14;99528.88;5051703;28;20044;-81
2022/04/20 04:55:17;;;;;;;20.25;15.98;;;;;;;4.59;86.98;99522.09;5052522;28;20029;-81
2022/04/20 04:57:42;;;;;;;23.17;15.27;;;;;;;4.57;87.04;99516.16;5052827;28;20025;-81
2022/04/20 05:00:08;;;;;;;20.58;15.10;;;;;;;4.58;87.06;99525.59;5052988;28;20104;-81
2022/04/20 05:02:33;;;;;;;21.70;16.25;;;;;;;4.53;87.17;99507.63;5050991;28;20021;-81
2022/04/20 05:04:58;;;;;;;22.23;15.70;;;;;;;4.53;87.84;99509.38;5051525;28;20035;-81
2022/04/20 05:07:24;;;;;;;18.98;15.18;;;;;;;4.55;87.87;99505.00;5052577;28;20671;-76
2022/04/20 05:09:49;;;;;;;20.50;15.68;;;;;;;4.61;88.70;99510.88;5059656;28;20098;-76
2022/04/20 05:12:14;;;;;;;23.60;17.05;;;;;;;4.57;88.81;99511.84;5072265;28;20103;-76
2022/04/20 05:14:40;;;;;;;22.77;16.45;;;;;;;4.54;88.36;99500.75;5072449;28;20074;-76
2022/04/20 05:17:05;;;;;;;22.63;16.30;;;;;;;4.51;88.64;99501.69;5072285;28;20103;-77
2022/04/20 05:19:31;;;;;;;21.13;17.20;;;;;;;4.45;88.59;99496.66;5072312;28;20085;-76
2022/04/20 05:21:57;;;;;;;26.85;17.52;;;;;;;4.51;88.91;99506.84;5071913;28;20025;-77
2022/04/20 05:24:22;;;;;;;23.98;17.17;;;;;;;4.58;89.20;99505.78;5071868;28;20082;-77
2022/04/20 05:26:48;;;;;;;28.50;17.73;;;;;;;4.52;89.29;99487.06;5072491;28;20090;-74
2022/04/20 05:29:13;;;;;;;26.95;18.92;;;;;;;4.58;89.29;99498.06;5072178;28;20036;-77
2022/04/20 05:31:39;;;;;;;33.30;21.75;;;;;;;4.66;88.94;99508.19;5071826;28;20105;-77
2022/04/20 05:34:04;;;;;;;43.15;25.33;;;;;;;4.68;89.36;99499.53;5072258;28;20025;-78
2022/04/20 05:41:39;;;;;;;50.17;29.13;;;;;;;4.69;89.34;99490.91;5071972;28;20071;-76
2022/04/20 05:42:00;;;;;;;38.20;23.80;;;;;;;4.79;88.98;99481.19;5072031;28;20477;-76
2022/04/20 05:44:25;;;;;;;35.13;22.85;;;;;;;4.83;88.72;99479.38;5071512;28;20025;-76
2022/04/20 05:46:51;;;;;;;33.58;22.05;;;;;;;4.99;89.17;99488.41;5072195;28;20020;-76
2022/04/20 05:49:16;;;;;;;32.42;22.02;;;;;;;5.05;88.54;99477.06;5071746;28;20028;-76
2022/04/20 05:51:42;;;;;;;31.73;21.63;;;;;;;5.14;87.85;99484.56;5071962;28;20060;-77
2022/04/20 05:54:07;;;;;;;28.38;18.98;;;;;;;5.23;87.70;99476.59;5071810;28;20059;-83
2022/04/20 05:56:33;;;;;;;25.27;18.60;;;;;;;5.27;87.09;99470.44;5053528;28;20027;-83
2022/04/20 05:58:58;;;;;;;27.70;18.13;;;;;;;5.41;86.71;99464.88;5053782;28;20028;-83
2022/04/20 06:01:26;;;;;;;21.23;16.13;;;;;;;5.52;86.11;99470.59;5071622;28;20028;-83
2022/04/20 06:03:52;;;;;;;25.67;17.42;;;;;;;5.59;85.48;99479.84;5071749;28;20086;-83
2022/04/20 06:06:18;;;;;;;23.02;15.95;;;;;;;5.62;84.98;99466.84;5054236;28;20056;-84
2022/04/20 06:08:44;;;;;;;22.25;16.58;;;;;;;5.67;84.65;99462.38;5054077;28;20499;-84
2022/04/20 06:11:11;;;;;;;22.23;17.17;;;;;;;5.75;84.43;99457.84;5071886;28;20136;-83
2022/04/20 06:13:37;;;;;;;24.23;16.00;;;;;;;5.84;84.44;99461.88;5072031;28;20025;-84
2022/04/20 06:16:07;;;;;;;22.15;16.38;;;;;;;5.87;83.63;99468.72;5054448;28;20021;-84
2022/04/20 06:18:32;;;;;;;20.52;15.75;;;;;;;5.93;83.48;99465.97;5053693;28;20028;-83
2022/04/20 06:20:58;;;;;;;20.95;16.30;;;;;;;6.04;83.50;99468.22;5054011;28;20025;-83
2022/04/20 06:23:23;;;;;;;21.23;16.13;;;;;;;6.07;82.83;99465.53;5053849;28;20040;-83
2022/04/20 06:25:52;;;;;;;23.13;15.63;;;;;;;6.12;82.45;99466.25;5053956;28;20361;-84
2022/04/20 06:28:17;;;;;;;24.17;16.50;;;;;;;6.11;82.07;99454.19;5072285;28;20020;-84
2022/04/20 06:30:43;;;;;;;22.13;15.90;;;;;;;6.23;81.26;99457.22;5049662;28;20101;-84
2022/04/20 06:33:08;;;;;;;23.58;15.77;;;;;;;6.26;80.81;99451.13;5049833;28;20045;-84
2022/04/20 06:35:34;;;;;;;23.52;15.95;;;;;;;6.37;80.42;99455.97;5053169;28;20092;-84
2022/04/20 06:37:59;;;;;;;19.83;15.30;;;;;;;6.39;79.59;99447.25;5053511;28;20025;-84
2022/04/20 06:40:24;;;;;;;23.58;15.98;;;;;;;6.38;79.15;99440.38;5053044;28;20458;-83
2022/04/20 06:42:50;;;;;;;18.38;14.40;;;;;;;6.48;78.15;99441.75;5053342;28;20040;-83
2022/04/20 06:45:15;;;;;;;19.83;13.65;;;;;;;6.57;77.25;99450.97;5053631;28;20045;-84
2022/04/20 06:47:40;;;;;;;16.95;13.88;;;;;;;6.52;76.47;99431.31;5036326;28;20155;-84
2022/04/20 06:50:06;;;;;;;20.45;14.95;;;;;;;6.54;75.82;99430.38;5053290;28;20124;-84
2022/04/20 07:00:44;;;;;;;15.05;12.25;;;;;;;6.73;72.88;99428.00;5055472;28;20427;-84
2022/04/20 07:03:09;;;;;;;14.90;12.10;;;;;;;6.68;72.48;99419.56;5095526;28;20024;-83
2022/04/20 07:05:35;;;;;;;18.52;13.10;;;;;;;6.74;71.99;99425.38;5095330;28;20039;-84
2022/04/20 07:08:01;;;;;;;17.85;13.32;;;;;;;6.66;71.22;99426.53;5077512;28;20024;-83
2022/04/20 07:10:28;;;;;;;17.30;12.75;;;;;;;6.67;71.05;99420.47;5077144;28;20044;-84
2022/04/20 07:12:53;;;;;;;18.67;13.27;;;;;;;6.74;70.77;99422.78;5095514;28;20062;-83
2022/04/20 07:15:19;;;;;;;16.85;12.77;;;;;;;6.87;70.64;99430.97;5077118;28;20067;-75
2022/04/20 07:17:45;;;;;;;17.60;12.15;;;;;;;7.04;70.31;99426.91;5094977;28;20062;-84
2022/04/20 07:20:17;;;;;;;15.05;11.77;;;;;;;7.27;69.74;99426.09;5095581;28;20024;-83
2022/04/20 07:22:44;;;;;;;15.20;11.70;;;;;;;7.41;68.75;99432.44;5095191;28;20024;-83
2022/04/20 07:25:09;;;;;;;17.65;12.35;;;;;;;7.37;68.55;99409.31;5095506;28;20032;-83
2022/04/20 07:27:35;;;;;;;15.63;12.07;;;;;;;7.56;67.96;99425.03;5076855;28;20035;-84
2022/04/20 07:30:00;;;;;;;14.98;12.40;;;;;;;7.60;67.99;99431.78;5076979;28;20500;-84
2022/04/20 07:32:25;;;;;;;15.57;11.60;;;;;;;7.64;67.85;99423.81;5076557;28;20033;-85
2022/04/20 07:34:51;;;;;;;16.48;13.75;;;;;;;7.61;67.46;99412.72;5095715;28;20064;-84
2022/04/20 07:37:16;;;;;;;23.60;13.25;;;;;;;7.64;66.51;99417.81;5094778;28;20016;-84
2022/04/20 07:39:42;;;;;;;18.15;12.63;;;;;;;7.62;66.24;99410.06;5093307;28;20042;-84
2022/04/20 07:42:07;;;;;;;19.85;12.77;;;;;;;7.71;65.96;99424.41;5076282;28;20052;-84
2022/04/20 07:44:33;;;;;;;16.52;12.45;;;;;;;7.66;66.46;99403.84;5094188;28;20035;-83
2022/04/20 07:46:58;;;;;;;16.17;12.23;;;;;;;7.69;65.89;99418.47;5093842;28;20065;-84
2022/04/20 07:52:08;;;;;;;14.52;12.00;;;;;;;7.71;65.51;99408.88;5094932;28;20066;-84
2022/04/20 07:54:34;;;;;;;15.07;11.13;;;;;;;7.70;65.12;99410.63;5031577;28;20037;-84
2022/04/20 07:57:00;;;;;;;16.02;11.45;;;;;;;7.90;65.33;99414.19;5031904;28;20086;-83
2022/04/20 07:59:25;;;;;;;15.80;12.13;;;;;;;8.00;65.88;99407.72;5031752;28;20090;-83
2022/04/20 08:01:50;;;;;;;16.52;11.75;;;;;;;8.08;65.22;99390.09;5015497;28;20048;-83
2022/04/20 08:04:16;;;;;;;17.65;12.43;;;;;;;8.43;64.70;99404.28;5031748;28;20589;-84
2022/04/20 08:06:41;;;;;;;15.65;12.52;;;;;;;8.64;64.59;99407.72;5031476;28;20037;-82
2022/04/20 08:09:07;;;;;;;18.70;13.25;;;;;;;8.77;63.66;99413.22;4979956;28;20119;-83
2022/04/20 08:11:32;;;;;;;17.02;12.43;;;;;;;8.91;64.60;99408.28;4974659;28;20116;-84
2022/04/20 08:14:10;;;;;;;14.10;11.55;;;;;;;8.80;63.71;99409.63;4991914;28;20122;-83
2022/04/20 08:16:35;;;;;;;14.93;11.70;;;;;;;8.87;64.68;99404.13;4991815;28;20524;-80
2022/04/20 08:19:01;;;;;;;14.63;10.80;;;;;;;8.89;65.07;99391.94;4991432;28;20042;-79
2022/04/20 08:21:27;;;;;;;17.33;12.07;;;;;;;8.94;65.78;99405.56;4990098;28;20029;-79
2022/04/20 08:23:53;;;;;;;14.60;11.57;;;;;;;9.00;67.15;99407.88;4991418;28;20528;-80
2022/04/20 08:26:18;;;;;;;16.90;12.50;;;;;;;9.03;68.61;99408.66;5003987;28;20448;-80
2022/04/20 08:28:44;;;;;;;17.65;13.10;;;;;;;8.94;69.89;99397.75;5029149;28;20492;-79
2022/04/20 08:31:11;;;;;;;19.30;13.13;;;;;;;8.85;70.39;99408.56;5030026;28;20029;-79
2022/04/20 08:33:36;;;;;;;16.92;13.85;;;;;;;8.82;71.98;99405.25;5030131;28;20029;-79
2022/04/20 08:36:03;;;;;;;15.90;13.23;;;;;;;8.88;72.95;99395.41;5013932;28;20040;-79
2022/04/20 08:38:29;;;;;;;17.00;13.27;;;;;;;8.98;73.90;99388.09;5030202;28;20040;-79
2022/04/20 08:40:59;;;;;;;18.00;13.85;;;;;;;8.99;75.31;99395.78;5065176;28;20033;-79
2022/04/20 08:43:25;;;;;;;21.87;16.77;;;;;;;8.83;76.02;99389.59;5090957;28;20105;-79
2022/04/20 08:45:52;;;;;;;17.42;13.27;;;;;;;8.57;77.45;99390.72;5092325;28;20107;-79
2022/04/20 08:48:21;;;;;;;16.23;12.95;;;;;;;8.34;80.53;99402.00;5074685;28;20108;-79
2022/04/20 08:50:48;;;;;;;16.58;13.20;;;;;;;8.13;83.82;99400.28;5092497;28;20093;-77
2022/04/20 08:53:16;;;;;;;17.25;12.65;;;;;;;7.96;84.41;99401.84;5092485;28;20445;-79
2022/04/20 08:55:45;;;;;;;15.60;13.02;;;;;;;7.95;85.45;99397.53;5092342;28;20024;-79
2022/04/20 08:58:12;;;;;;;16.25;13.85;;;;;;;7.99;87.49;99406.03;5074300;28;20032;-79
2022/04/20 09:00:38;;;;;;;14.93;13.15;;;;;;;7.86;88.56;99391.88;5092199;28;20467;-79
2022/04/20 09:03:06;;;;;;;16.58;12.38;;;;;;;7.91;89.73;99408.09;5074284;28;20097;-79
2022/04/20 09:05:34;;;;;;;16.92;13.75;;;;;;;7.77;90.11;99384.47;5092287;28;20089;-79
2022/04/20 09:08:10;;;;;;;17.45;13.98;;;;;;;7.89;90.71;99391.78;5092838;28;20023;-79
2022/04/20 09:10:36;;;;;;;16.60;12.57;;;;;;;7.92;90.91;99383.84;5091704;28;20105;-79
2022/04/20 09:13:11;;;;;;;16.75;12.82;;;;;;;7.91;92.41;99382.16;5092508;28;20036;-79
2022/04/20 09:15:38;;;;;;;23.85;17.38;;;;;;;7.96;93.09;99375.03;5089511;28;20038;-79
2022/04/20 09:18:06;;;;;;;60.67;33.28;;;;;;;7.94;94.07;99372.50;5072188;28;20027;-79
2022/04/20 09:20:34;;;;;;;38.72;24.23;;;;;;;8.05;95.78;99371.22;5071844;28;20522;-79
2022/04/20 09:23:01;;;;;;;20.27;15.35;;;;;;;8.15;95.94;99364.78;5071810;28;20064;-80
2022/04/20 09:25:38;;;;;;;18.83;14.98;;;;;;;8.26;96.06;99354.81;5053952;28;20452;-79
2022/04/20 09:28:06;;;;;;;21.85;15.88;;;;;;;8.36;96.61;99371.66;5071633;28;20032;-80
2022/04/20 09:30:35;;;;;;;17.98;13.88;;;;;;;8.46;97.67;99362.59;5071709;28;20439;-79
2022/04/20 09:33:09;;;;;;;17.27;14.45;;;;;;;8.58;96.62;99358.63;5053872;28;20020;-80
2022/04/20 09:35:46;;;;;;;20.88;15.23;;;;;;;8.49;96.08;99354.69;5071439;28;20043;-79
2022/04/20 09:38:11;;;;;;;15.05;13.25;;;;;;;8.36;96.08;99340.53;5068491;28;20037;-79
2022/04/20 09:40:39;;;;;;;17.80;13.70;;;;;;;8.34;95.93;99350.09;5071707;28;20035;-79
2022/04/20 09:43:12;;;;;;;16.80;13.15;;;;;;;8.23;96.82;99344.53;5053703;28;20032;-79
2022/04/20 09:45:38;;;;;;;16.48;14.45;;;;;;;8.13;98.08;99349.28;5071400;28;20025;-79
2022/04/20 09:51:14;;;;;;;22.73;16.00;;;;;;;8.15;99.27;99321.50;5072074;28;20043;-80
2022/04/20 09:53:42;;;;;;;17.65;12.57;;;;;;;8.26;99.24;99334.06;5071400;28;20070;-79
2022/04/20 09:56:32;;;;;;;14.65;11.30;;;;;;;8.23;99.68;99332.41;5071388;28;20060;-79
2022/04/20 09:59:04;;;;;;;12.43;11.07;;;;;;;8.06;100.00;99316.72;5071692;28;20104;-79
2022/04/20 10:01:45;;;;;;;13.85;10.80;;;;;;;8.13;100.00;99338.91;5071370;28;20391;-79
2022/04/20 10:04:10;;;;;;;13.15;11.45;;;;;;;8.14;100.00;99332.81;5053426;28;20387;-79
2022/04/20 10:06:40;;;;;;;15.52;11.70;;;;;;;8.03;100.00;99316.00;5071082;28;20032;-79
2022/04/20 10:09:08;;;;;;;14.20;11.48;;;;;;;8.11;100.00;99330.31;5074797;28;20475;-79
2022/04/20 10:11:36;;;;;;;14.73;12.32;;;;;;;8.05;100.00;99340.09;5077469;28;20040;-79
2022/04/20 10:16:50;;;;;;;12.10;10.68;;;;;;;7.93;100.00;99334.53;5085661;28;20097;-80
2022/04/20 10:19:25;;;;;;;12.43;10.13;;;;;;;7.94;100.00;99333.63;5059681;28;20028;-80
2022/04/20 10:21:53;;;;;;;12.02;10.27;;;;;;;7.78;100.00;99324.78;5078260;28;20442;-80
2022/04/20 10:24:38;;;;;;;11.65;10.18;;;;;;;7.82;100.00;99336.72;5078466;28;20032;-79
2022/04/20 10:27:13;;;;;;;12.55;11.15;;;;;;;7.77;100.00;99338.66;5078007;28;20115;-83
2022/04/20 10:29:58;;;;;;;12.45;10.85;;;;;;;7.64;100.00;99303.75;5077523;28;20029;-80
2022/04/20 10:32:26;;;;;;;13.98;10.80;;;;;;;7.71;100.00;99315.53;5077851;28;20032;-81
2022/04/20 10:34:53;;;;;;;11.98;10.05;;;;;;;7.58;100.00;99303.97;5077754;28;20016;-80
2022/04/20 10:37:22;;;;;;;15.13;11.35;;;;;;;7.62;100.00;99313.31;5060074;28;20032;-80
2022/04/20 10:39:48;;;;;;;16.45;12.93;;;;;;;7.63;100.00;99308.09;5077314;28;20021;-80
2022/04/20 10:42:17;;;;;;;14.00;11.13;;;;;;;7.58;100.00;99312.59;5059364;28;20364;-80
2022/04/20 10:45:05;;;;;;;13.13;10.50;;;;;;;7.56;100.00;99317.00;5077390;28;20047;-80
2022/04/20 10:47:36;;;;;;;12.20;9.75;;;;;;;7.52;100.00;99310.25;5077519;28;20111;-79
2022/04/20 10:50:13;;;;;;;12.20;10.50;;;;;;;7.41;100.00;99302.91;5077533;28;20078;-80
2022/04/20 10:52:42;;;;;;;16.17;10.52;;;;;;;7.34;100.00;99304.06;5077206;28;20119;-79
2022/04/20 10:55:12;;;;;;;12.40;10.55;;;;;;;7.39;100.00;99311.66;5077655;28;20492;-80
2022/04/20 10:57:42;;;;;;;12.93;10.35;;;;;;;7.44;100.00;99309.72;5077389;28;20476;-80
2022/04/20 11:00:20;;;;;;;11.60;10.18;;;;;;;7.42;100.00;99312.38;5058830;28;20541;-80
2022/04/20 11:03:00;;;;;;;11.55;10.30;;;;;;;7.42;100.00;99303.78;5077165;28;20040;-80
2022/04/20 11:05:27;;;;;;;12.82;9.48;;;;;;;7.39;100.00;99303.88;5077319;28;20381;-80
2022/04/20 11:07:59;;;;;;;14.13;10.80;;;;;;;7.35;100.00;99304.91;5059228;28;20033;-80
2022/04/20 11:10:25;;;;;;;13.27;9.55;;;;;;;7.29;100.00;99316.34;5055892;28;20045;-78
2022/04/20 11:18:58;;;;;;;10.05;7.30;;;;;;;7.25;100.00;99305.25;5077232;28;20464;-80
2022/04/20 11:21:23;;;;;;;15.55;8.95;;;;;;;7.19;100.00;99304.66;5073262;28;20493;-79
2022/04/20 11:23:49;;;;;;;16.98;11.32;;;;;;;7.11;100.00;99294.56;5073583;28;20107;-78
2022/04/20 11:26:25;;;;;;;21.55;12.10;;;;;;;7.10;100.00;99300.66;5074221;28;20403;-79
2022/04/20 11:28:52;;;;;;;16.60;10.63;;;;;;;7.08;100.00;99310.25;5072556;28;20036;-78
2022/04/20 11:31:21;;;;;;;12.68;9.10;;;;;;;7.06;100.00;99293.06;5073785;28;20051;-78
2022/04/20 11:33:47;;;;;;;13.35;10.07;;;;;;;7.01;100.00;99301.00;5072278;28;20182;-77
2022/04/20 11:36:14;;;;;;;17.38;12.25;;;;;;;6.98;100.00;99296.78;5074151;28;20108;-80
2022/04/20 11:38:46;;;;;;;18.80;12.55;;;;;;;6.96;100.00;99279.63;5073894;28;20024;-79
2022/04/20 11:41:14;;;;;;;16.90;12.32;;;;;;;7.15;100.00;99301.31;5073815;28;20468;-79
2022/04/20 11:43:40;;;;;;;10.77;9.07;;;;;;;7.22;100.00;99295.00;5074047;28;20025;-79
2022/04/20 11:46:07;;;;;;;10.60;8.10;;;;;;;7.31;100.00;99292.97;5074003;28;20032;-79
2022/04/20 11:48:35;;;;;;;11.45;7.82;;;;;;;7.36;100.00;99288.44;5073897;28;20017;-79
2022/04/20 11:51:02;;;;;;;15.23;10.23;;;;;;;7.45;100.00;99293.25;5072231;28;20174;-79
2022/04/20 11:53:37;;;;;;;15.35;10.32;;;;;;;7.55;100.00;99293.75;5073725;28;20100;-78